createdAt,value
2023-02-03T00:00:00.211Z,1017
2023-02-03T00:05:00.220Z,1016
2023-02-03T00:10:00.269Z,1016
2023-02-03T00:15:00.156Z,1016
2023-02-03T00:20:00.240Z,1016
2023-02-03T00:25:00.153Z,1016
2023-02-03T00:30:00.283Z,1016
2023-02-03T00:35:00.232Z,1016
2023-02-03T00:40:00.255Z,1016
2023-02-03T00:45:00.164Z,1016
2023-02-03T00:50:00.250Z,1016
2023-02-03T00:55:00.232Z,1016
2023-02-03T01:00:05.974Z,1016
2023-02-03T01:05:00.157Z,1017
2023-02-03T01:10:00.192Z,1017
2023-02-03T01:15:00.192Z,1017
2023-02-03T01:20:02.797Z,1017
2023-02-03T01:25:00.193Z,1017
2023-02-03T01:30:00.197Z,1017
2023-02-03T01:35:00.253Z,1017
2023-02-03T01:40:00.227Z,1017
2023-02-03T01:45:00.199Z,1017
2023-02-03T01:50:00.239Z,1017
2023-02-03T01:55:00.187Z,1017
2023-02-03T02:00:00.284Z,1017
2023-02-03T02:05:00.236Z,1017
2023-02-03T02:15:00.272Z,1016
2023-02-03T02:20:00.252Z,1016
2023-02-03T02:25:00.132Z,1016
2023-02-03T02:30:00.297Z,1016
2023-02-03T02:35:00.213Z,1016
2023-02-03T02:40:00.264Z,1016
2023-02-03T02:45:00.200Z,1016
2023-02-03T02:50:00.253Z,1016
2023-02-03T02:55:00.196Z,1016
2023-02-03T03:00:00.402Z,1016
2023-02-03T03:05:00.329Z,1016
2023-02-03T03:10:00.248Z,1016
2023-02-03T03:15:00.151Z,1016
2023-02-03T03:20:00.247Z,1016
2023-02-03T03:25:00.136Z,1016
2023-02-03T03:30:00.207Z,1016
2023-02-03T03:35:00.211Z,1016
2023-02-03T03:40:00.218Z,1016
2023-02-03T03:45:00.191Z,1016
2023-02-03T03:50:00.253Z,1016
2023-02-03T03:55:00.147Z,1016
2023-02-03T04:00:00.248Z,1016
2023-02-03T04:05:00.179Z,1016
2023-02-03T04:10:00.217Z,1016
2023-02-03T04:15:00.235Z,1016
2023-02-03T04:20:00.261Z,1016
2023-02-03T04:25:00.214Z,1016
2023-02-03T04:30:00.255Z,1016
2023-02-03T04:35:00.189Z,1016
2023-02-03T04:40:00.263Z,1016
2023-02-03T04:45:00.171Z,1016
2023-02-03T04:50:00.266Z,1016
2023-02-03T04:55:00.255Z,1016
2023-02-03T05:00:00.265Z,1016
2023-02-03T05:05:00.182Z,1016
2023-02-03T05:10:00.189Z,1016
2023-02-03T05:15:00.195Z,1016
2023-02-03T05:20:00.209Z,1015
2023-02-03T05:25:00.170Z,1016
2023-02-03T05:30:00.282Z,1016
2023-02-03T05:35:00.282Z,1015
2023-02-03T05:40:00.273Z,1015
2023-02-03T05:45:00.226Z,1015
2023-02-03T05:50:00.322Z,1015
2023-02-03T05:55:07.037Z,1015
2023-02-03T06:00:00.258Z,1015
2023-02-03T06:05:00.208Z,1016
2023-02-03T06:10:00.212Z,1015
2023-02-03T06:15:00.245Z,1015
2023-02-03T06:20:00.215Z,1016
2023-02-03T06:25:00.183Z,1015
2023-02-03T06:30:00.275Z,1015
2023-02-03T06:35:00.211Z,1016
2023-02-03T06:40:00.241Z,1015
2023-02-03T06:45:00.178Z,1016
2023-02-03T06:50:00.244Z,1016
2023-02-03T06:55:00.282Z,1015
2023-02-03T07:00:05.151Z,1016
2023-02-03T07:05:00.243Z,1016
2023-02-03T07:10:00.219Z,1016
2023-02-03T07:15:00.252Z,1016
2023-02-03T07:20:00.273Z,1016
2023-02-03T07:25:00.262Z,1016
2023-02-03T07:30:00.253Z,1016
2023-02-03T07:35:00.180Z,1016
2023-02-03T07:40:05.183Z,1016
2023-02-03T07:55:00.252Z,1016
2023-02-03T08:00:23.915Z,1016
2023-02-03T08:10:00.211Z,1015
2023-02-03T08:15:00.164Z,1016
2023-02-03T08:20:00.253Z,1016
2023-02-03T08:25:00.196Z,1016
2023-02-03T08:30:00.331Z,1016
2023-02-03T08:35:00.247Z,1016
2023-02-03T08:40:00.228Z,1016
2023-02-03T08:45:00.266Z,1016
2023-02-03T08:50:05.242Z,1016
2023-02-03T08:55:00.244Z,1016
2023-02-03T09:00:00.266Z,1016
2023-02-03T09:05:00.309Z,1016
2023-02-03T09:10:00.247Z,1016
2023-02-03T09:15:00.237Z,1016
2023-02-03T09:20:00.360Z,1016
2023-02-03T09:25:00.292Z,1016
2023-02-03T09:30:00.259Z,1016
2023-02-03T09:35:03.512Z,1016
2023-02-03T09:40:00.210Z,1016
2023-02-03T09:45:00.256Z,1016
2023-02-03T09:50:00.297Z,1016
2023-02-03T09:55:00.210Z,1016
2023-02-03T10:00:00.247Z,1016
2023-02-03T10:05:00.281Z,1016
2023-02-03T10:10:00.291Z,1016
2023-02-03T10:15:00.262Z,1016
2023-02-03T10:20:00.210Z,1016
2023-02-03T10:25:00.259Z,1016
2023-02-03T10:30:00.230Z,1016
2023-02-03T10:35:00.246Z,1016
2023-02-03T10:40:00.267Z,1016
2023-02-03T10:45:00.206Z,1016
2023-02-03T10:50:00.253Z,1016
2023-02-03T10:55:00.179Z,1016
2023-02-03T11:00:05.186Z,1016
2023-02-03T11:05:00.280Z,1016
2023-02-03T11:10:00.259Z,1016
2023-02-03T11:15:00.178Z,1016
2023-02-03T11:20:00.254Z,1016
2023-02-03T11:25:00.252Z,1016
2023-02-03T11:30:00.289Z,1016
2023-02-03T11:35:00.205Z,1017
2023-02-03T11:40:00.247Z,1017
2023-02-03T11:45:00.229Z,1016
2023-02-03T11:50:00.277Z,1016
2023-02-03T11:55:00.595Z,1016
2023-02-03T12:00:00.239Z,1016
2023-02-03T12:05:01.184Z,1016
2023-02-03T12:10:00.469Z,1016
2023-02-03T12:15:00.277Z,1016
2023-02-03T12:20:00.272Z,1016
2023-02-03T12:25:00.251Z,1016
2023-02-03T12:30:00.263Z,1016
2023-02-03T12:35:00.252Z,1016
2023-02-03T12:40:00.220Z,1016
2023-02-03T12:45:00.244Z,1017
2023-02-03T12:50:00.261Z,1017
2023-02-03T12:55:00.167Z,1017
2023-02-03T13:00:00.261Z,1017
2023-02-03T13:05:00.263Z,1017
2023-02-03T13:10:00.254Z,1017
2023-02-03T13:15:00.277Z,1017
2023-02-03T13:20:00.240Z,1017
2023-02-03T13:25:00.234Z,1017
2023-02-03T13:30:00.294Z,1017
2023-02-03T13:35:00.264Z,1017
2023-02-03T13:40:00.233Z,1017
2023-02-03T13:45:00.274Z,1017
2023-02-03T13:50:00.229Z,1017
2023-02-03T13:55:00.273Z,1017
2023-02-03T14:00:00.272Z,1017
2023-02-03T14:05:00.295Z,1017
2023-02-03T14:10:00.251Z,1017
2023-02-03T14:15:00.288Z,1017
2023-02-03T14:20:00.244Z,1017
2023-02-03T14:25:00.311Z,1017
2023-02-03T14:30:00.494Z,1017
2023-02-03T14:35:00.258Z,1017
2023-02-03T14:40:00.250Z,1017
2023-02-03T14:45:00.211Z,1018
2023-02-03T14:50:00.276Z,1018
2023-02-03T14:55:00.173Z,1018
2023-02-03T15:00:00.302Z,1017
2023-02-03T15:05:00.260Z,1018
2023-02-03T15:10:00.376Z,1018
2023-02-03T15:15:00.306Z,1018
2023-02-03T15:20:00.275Z,1018
2023-02-03T15:25:00.312Z,1018
2023-02-03T15:30:00.233Z,1018
2023-02-03T15:35:00.248Z,1018
2023-02-03T15:40:00.302Z,1018
2023-02-03T15:45:00.228Z,1018
2023-02-03T15:50:00.279Z,1018
2023-02-03T15:55:00.233Z,1018
2023-02-03T16:00:00.314Z,1018
2023-02-03T16:05:00.263Z,1018
2023-02-03T16:10:00.352Z,1018
2023-02-03T16:15:00.282Z,1018
2023-02-03T16:20:00.192Z,1019
2023-02-03T16:25:00.249Z,1019
2023-02-03T16:30:00.309Z,1019
2023-02-03T16:35:00.258Z,1019
2023-02-03T16:40:00.250Z,1019
2023-02-03T16:45:00.259Z,1019
2023-02-03T16:50:00.259Z,1019
2023-02-03T16:55:00.243Z,1019
2023-02-03T17:00:00.320Z,1019
2023-02-03T17:05:00.183Z,1019
2023-02-03T17:10:00.253Z,1019
2023-02-03T17:15:00.221Z,1019
2023-02-03T17:20:00.290Z,1019
2023-02-03T17:25:00.296Z,1019
2023-02-03T17:30:00.309Z,1019
2023-02-03T17:35:00.298Z,1020
2023-02-03T17:55:00.291Z,1020
2023-02-03T18:00:00.265Z,1020
2023-02-03T18:05:00.198Z,1020
2023-02-03T18:10:00.220Z,1020
2023-02-03T18:15:00.217Z,1020
2023-02-03T18:20:00.285Z,1020
2023-02-03T18:25:00.186Z,1020
2023-02-03T18:30:00.297Z,1020
2023-02-03T18:35:01.012Z,1020
2023-02-03T18:40:00.233Z,1020
2023-02-03T18:45:00.143Z,1020
2023-02-03T18:50:00.234Z,1020
2023-02-03T18:55:00.254Z,1020
2023-02-03T19:00:00.261Z,1020
2023-02-03T19:05:00.206Z,1020
2023-02-03T19:10:00.224Z,1020
2023-02-03T19:15:00.279Z,1020
2023-02-03T19:20:00.237Z,1021
2023-02-03T19:25:00.260Z,1021
2023-02-03T19:30:00.272Z,1021
2023-02-03T19:35:00.159Z,1021
2023-02-03T19:40:00.300Z,1021
2023-02-03T19:45:00.243Z,1021
2023-02-03T19:50:00.261Z,1021
2023-02-03T19:55:00.272Z,1021
2023-02-03T20:00:12.477Z,1021
2023-02-03T20:05:00.372Z,1021
2023-02-03T20:10:00.282Z,1021
2023-02-03T20:15:00.202Z,1021
2023-02-03T20:20:00.263Z,1021
2023-02-03T20:25:00.246Z,1021
2023-02-03T20:30:00.249Z,1021
2023-02-03T20:35:00.290Z,1021
2023-02-03T20:40:00.205Z,1021
2023-02-03T20:45:00.228Z,1021
2023-02-03T20:50:00.250Z,1022
2023-02-03T20:55:00.243Z,1022
2023-02-03T21:00:00.324Z,1022
2023-02-03T21:05:00.395Z,1022
2023-02-03T21:10:05.540Z,1022
2023-02-03T21:15:00.180Z,1022
2023-02-03T21:20:00.317Z,1022
2023-02-03T21:25:00.255Z,1022
2023-02-03T21:30:00.282Z,1022
2023-02-03T21:35:00.252Z,1022
2023-02-03T21:40:00.300Z,1022
2023-02-03T21:45:00.244Z,1022
2023-02-03T21:50:00.270Z,1022
2023-02-03T21:55:00.326Z,1022
2023-02-03T22:00:00.296Z,1022
2023-02-03T22:05:00.237Z,1022
2023-02-03T22:10:00.299Z,1022
2023-02-03T22:15:00.183Z,1023
2023-02-03T22:20:00.286Z,1023
2023-02-03T22:25:00.230Z,1023
2023-02-03T22:30:00.194Z,1023
2023-02-03T22:35:00.279Z,1023
2023-02-03T22:40:00.240Z,1023
2023-02-03T22:45:00.193Z,1023
2023-02-03T22:50:01.152Z,1023
2023-02-03T22:55:00.255Z,1023
2023-02-03T23:00:00.224Z,1023
2023-02-03T23:05:00.224Z,1023
2023-02-03T23:10:00.300Z,1023
2023-02-03T23:15:00.240Z,1023
2023-02-03T23:20:00.220Z,1023
2023-02-03T23:25:00.142Z,1023
2023-02-03T23:30:00.281Z,1023
2023-02-03T23:35:00.156Z,1023
2023-02-03T23:40:00.272Z,1023
2023-02-03T23:45:00.257Z,1024
2023-02-03T23:50:00.260Z,1024
2023-02-03T23:55:00.225Z,1023
